Friday, February 23, 2018, 12:14 PM GMT
Back to Local

CYHM, Hamilton Airport

Location: , , Canada Lat: 43.167
Local Time: 12:14 PM GMT (12:14 GMT) Lon: -79.933
Time Zone: GMT Elev: 777 ft

Show me the last for .
Show Coded

Time T Td Feel RH Dir Speed Gust Alt SLP Vis Weather Sky Remarks
2018-02-23 12:00 32 32 25 100 60° 8 - 30.33 30.36 10 SCT005 OVC011 None
2018-02-23 11:00 32 32 23 100 50° 12 - 30.36 30.40 8 BKN005 OVC012 None
2018-02-23 10:45 32 30 23 92 60° 12 - 30.37 30.40 8 BKN005 OVC014 Pressure rising rapidly
2018-02-23 10:00 32 30 22 92 60° 14 - 30.38 30.41 8 BKN004 OVC020 None
2018-02-23 09:00 30 30 19 100 60° 16 - 30.42 30.46 10 OVC004 Pressure falling rapidly
2018-02-23 08:00 30 30 17 100 50° 16 22 30.48 30.51 10 OVC004 None
2018-02-23 07:00 30 30 16 100 60° 18 25 30.51 30.55 10 OVC005 None
2018-02-23 06:00 32 30 19 92 60° 17 25 30.52 30.56 10 OVC005 None
2018-02-23 05:00 30 30 18 100 70° 18 - 30.53 30.57 10 OVC005 None
2018-02-23 04:00 30 30 20 100 70° 13 - 30.57 30.60 10 OVC005 None
2018-02-23 03:48 30 30 20 100 70° 14 - 30.58 30.61 10 OVC005 None
2018-02-23 03:00 30 28 20 92 60° 14 - 30.58 30.62 15 OVC006 None
2018-02-23 02:00 30 28 17 92 60° 16 23 30.59 30.63 15 OVC007 None
2018-02-23 01:00 30 28 19 92 50° 15 - 30.58 30.62 15 BKN008 BKN070 None
2018-02-23 00:53 30 28 19 92 50° 15 - 30.59 30.63 15 BKN009 BKN071 None
2018-02-23 00:00 30 28 17 92 50° 15 22 30.59 30.63 15 SCT010 BKN071 None
2018-02-22 23:48 30 27 19 86 50° 16 - 30.60 30.64 15 SCT010 BKN074 None
2018-02-22 23:00 30 28 18 92 40° 17 - 30.59 30.63 15 BKN010 BKN074 None
2018-02-22 22:00 30 28 19 92 50° 16 - 30.60 30.63 15 BKN011 None
2018-02-22 21:00 32 28 21 86 50° 16 - 30.60 30.64 15 BKN013 Pressure rising rapidly
2018-02-22 20:00 34 28 22 80 60° 20 - 30.59 30.63 15 BKN013 BKN110 None
2018-02-22 19:00 32 28 19 86 60° 16 23 30.61 30.65 15 FEW015CB SCT061 BKN100 None
2018-02-22 18:00 32 28 22 86 50° 15 - 30.64 30.67 12 SCT013 BKN100 OVC120 None
2018-02-22 17:00 32 28 21 86 40° 16 - 30.62 30.66 15 BKN014 BKN085 OVC120 Pressure falling rapidly
2018-02-22 16:00 30 28 19 92 50° 15 - 30.62 30.66 15 FEW010 BKN016 BKN062 OVC082 None
2018-02-22 15:00 30 27 18 86 60° 14 20 30.61 30.65 15 BKN012 OVC090 None
2018-02-22 14:00 28 25 17 86 60° 15 - 30.61 30.65 15 FEW015 FEW030 OVC090 None
2018-02-22 13:00 28 25 16 86 40° 9 17 30.61 30.65 15 FEW022 BKN095 None

Support USWX by starting your Amazon purchase here.